Jackson Evers International Airport
KJAN : rendu visible

Aérodrome :











RETROUVEZ-NOUS SUR...

 
LOGIN :

S'inscrire | Disclaimer

   EN    FR    IT 

 









Légende :    VFR   VFR Marginal   IFR   IFR Intensif   IFR Très Intensif
Visi : 
Plafond : 
>= 8 km
>= 3000ft
5 à 8 km
1000 à 3000 ft
1500m à 5 km
500 à 1000 ft
800 à 1500m
200 à 500 ft
< 800m
< 200 ft
Symboles :   Orages  Brouillard  Fortes neiges  Fortes précipitations  Vent > 20 kt






- Altitude de l'aérodrome : 346 ft
- Code IATA : JAN


KJAN - Jackson Evers International

DERNIER METAR :
  • 241454Z 18008KT 10SM OVC050 14/09 A2990 RMK AO2 SLP122 T01390094 55005 $

METARs EXPIRÉS :
  • 241354Z 17012G19KT 10SM SCT060 OVC070 14/09 A2989 RMK AO2 SLP119 T01390089 $
  • 241254Z 16007KT 10SM OVC048 13/09 A2990 RMK AO2 SLP122 T01330089 $

TAF KJAN
Valide du 24 à 13h jusqu'au 25 à 12h UTC


241307Z 2413/2512 16007KT P6SM VCSH OVC050
FM241800 17013G24KT 4SM -RA OVC015
FM242300 18014G21KT 5SM -RA OVC007
FM250100 20009KT P6SM OVC015
FM250500 24006KT P6SM BKN050



MET'MAP, la Météo Aéronautique d'un coup d'oeil ! - Copyright ORBIFLY Décembre 2007 - Disclaimer

ORBIFLY MET'MAP TEAM :

Programmation & Développement : Alexandra Zaïnal
Sur une idée originale de : Baudouin d'Aumeries
Assistance à la programmation : Marc-Olivier Méhu
Soutien technique & logistique : Manuel Goepfert

Contact : metmap@orbifly.com




SOURCES & CREDITS :

   NOAA       Earth
Advisory